createdAt,value
2022-07-29T00:02:38.383Z,12.11
2022-07-29T00:11:01.601Z,12.03
2022-07-29T00:19:24.664Z,12.00
2022-07-29T00:27:48.738Z,11.94
2022-07-29T00:36:15.414Z,11.87
2022-07-29T00:44:43.456Z,11.82
2022-07-29T00:53:10.479Z,11.87
2022-07-29T01:01:34.539Z,11.79
2022-07-29T01:09:59.911Z,11.61
2022-07-29T01:18:35.099Z,11.53
2022-07-29T01:27:39.576Z,11.49
2022-07-29T01:36:13.682Z,11.41
2022-07-29T01:44:57.490Z,11.30
2022-07-29T01:53:37.927Z,11.32
2022-07-29T02:02:02.909Z,11.37
2022-07-29T02:10:30.278Z,11.42
2022-07-29T02:18:57.232Z,11.46
2022-07-29T02:27:21.882Z,11.31
2022-07-29T02:35:47.851Z,11.19
2022-07-29T02:44:16.470Z,11.21
2022-07-29T02:52:45.217Z,11.27
2022-07-29T03:01:22.158Z,11.29
2022-07-29T03:09:46.887Z,11.34
2022-07-29T03:18:10.712Z,11.41
2022-07-29T03:26:33.732Z,11.45
2022-07-29T03:34:56.663Z,11.48
2022-07-29T03:43:21.215Z,11.51
2022-07-29T03:51:44.524Z,11.63
2022-07-29T04:00:08.573Z,12.01
2022-07-29T04:08:31.599Z,12.54
2022-07-29T04:16:54.502Z,13.08
2022-07-29T04:25:18.429Z,13.80
2022-07-29T04:33:41.524Z,14.54
2022-07-29T04:42:04.685Z,15.11
2022-07-29T04:50:31.527Z,15.67
2022-07-29T04:58:55.027Z,16.18
2022-07-29T05:07:17.971Z,16.55
2022-07-29T05:15:41.106Z,16.77
2022-07-29T05:24:04.479Z,17.04
2022-07-29T05:32:27.604Z,17.40
2022-07-29T05:40:50.652Z,17.70
2022-07-29T05:49:13.624Z,18.12
2022-07-29T05:57:50.493Z,18.54
2022-07-29T06:06:13.853Z,19.10
2022-07-29T06:14:37.145Z,19.61
2022-07-29T06:23:01.088Z,20.05
2022-07-29T06:31:24.179Z,20.55
2022-07-29T06:39:47.201Z,20.86
2022-07-29T06:48:11.594Z,21.20
2022-07-29T06:56:40.436Z,21.45
2022-07-29T07:05:04.007Z,21.60
2022-07-29T07:13:27.342Z,21.87
2022-07-29T07:21:50.408Z,22.15
2022-07-29T07:30:14.384Z,22.42
2022-07-29T07:38:37.426Z,22.83
2022-07-29T07:47:08.540Z,22.87
2022-07-29T07:55:47.500Z,23.02
2022-07-29T08:04:15.036Z,23.31
2022-07-29T08:12:38.879Z,23.40
2022-07-29T08:21:02.222Z,23.52
2022-07-29T08:29:25.311Z,23.61
2022-07-29T08:37:48.309Z,24.06
2022-07-29T08:46:11.374Z,24.04
2022-07-29T08:54:35.811Z,24.00
2022-07-29T09:03:00.430Z,24.14
2022-07-29T09:11:23.364Z,24.37
2022-07-29T09:19:46.345Z,24.44
2022-07-29T09:28:15.486Z,24.64
2022-07-29T09:36:45.736Z,24.93
2022-07-29T09:45:09.573Z,24.96
2022-07-29T09:53:38.413Z,25.03
2022-07-29T10:02:01.986Z,25.06
2022-07-29T10:10:38.153Z,24.86
2022-07-29T10:19:02.496Z,24.33
2022-07-29T10:27:25.500Z,24.67
2022-07-29T10:36:07.154Z,25.04
2022-07-29T10:44:34.835Z,24.93
2022-07-29T10:52:58.740Z,25.14
2022-07-29T11:01:37.629Z,25.13
2022-07-29T11:10:18.077Z,24.48
2022-07-29T11:19:13.431Z,24.41
2022-07-29T11:27:40.770Z,24.45
2022-07-29T11:36:16.839Z,24.52
2022-07-29T11:45:41.149Z,24.53
2022-07-29T11:53:55.100Z,24.40
2022-07-29T12:02:37.026Z,24.39
2022-07-29T12:11:05.105Z,24.42
2022-07-29T12:19:43.707Z,24.42
2022-07-29T12:28:14.096Z,24.47
2022-07-29T12:36:37.433Z,24.36
2022-07-29T12:45:00.525Z,24.20
2022-07-29T12:53:23.893Z,24.16
2022-07-29T13:01:53.296Z,24.22
2022-07-29T13:10:24.438Z,24.49
2022-07-29T13:18:47.865Z,24.61
2022-07-29T13:27:10.964Z,24.66
2022-07-29T13:35:33.864Z,24.62
2022-07-29T13:44:04.260Z,24.51
2022-07-29T13:52:27.349Z,24.61
2022-07-29T14:00:50.596Z,24.41
2022-07-29T14:09:13.786Z,24.24
2022-07-29T14:17:36.751Z,24.34
2022-07-29T14:25:59.786Z,24.46
2022-07-29T14:34:30.085Z,24.83
2022-07-29T14:42:54.568Z,25.13
2022-07-29T14:51:17.561Z,25.03
2022-07-29T14:59:40.498Z,24.84
2022-07-29T15:08:03.936Z,24.94
2022-07-29T15:16:33.101Z,24.96
2022-07-29T15:24:56.143Z,24.76
2022-07-29T15:33:19.189Z,24.67
2022-07-29T15:41:42.324Z,24.60
2022-07-29T15:50:12.948Z,24.33
2022-07-29T15:58:35.957Z,24.12
2022-07-29T16:06:59.483Z,24.03
2022-07-29T16:15:23.050Z,23.92
2022-07-29T16:23:46.112Z,23.78
2022-07-29T16:32:09.697Z,23.60
2022-07-29T16:40:33.032Z,23.52
2022-07-29T16:48:56.183Z,23.37
2022-07-29T16:57:19.398Z,23.15
2022-07-29T17:05:52.383Z,22.92
2022-07-29T17:14:17.616Z,22.70
2022-07-29T17:22:41.270Z,22.50
2022-07-29T17:31:04.284Z,22.26
2022-07-29T17:39:27.370Z,21.96
2022-07-29T17:47:50.276Z,21.66
2022-07-29T17:56:14.443Z,21.37
2022-07-29T18:04:37.366Z,21.09
2022-07-29T18:13:00.364Z,20.80
2022-07-29T18:21:37.587Z,20.51
2022-07-29T18:30:07.935Z,20.14
2022-07-29T18:38:30.972Z,19.77
2022-07-29T18:46:56.055Z,19.51
2022-07-29T18:55:22.137Z,19.32
2022-07-29T19:03:45.175Z,19.13
2022-07-29T19:12:08.249Z,18.94
2022-07-29T19:20:31.199Z,18.79
2022-07-29T19:28:55.856Z,18.65
2022-07-29T19:37:20.699Z,18.51
2022-07-29T19:45:46.970Z,18.39
2022-07-29T19:54:10.918Z,18.29
2022-07-29T20:02:35.157Z,18.20
2022-07-29T20:10:58.648Z,18.11
2022-07-29T20:19:21.731Z,18.05
2022-07-29T20:27:44.910Z,18.01
2022-07-29T20:36:09.501Z,17.97
2022-07-29T20:44:34.650Z,17.88
2022-07-29T20:52:58.320Z,17.82
2022-07-29T21:01:21.365Z,17.76
2022-07-29T21:09:44.847Z,17.69
2022-07-29T21:18:27.517Z,17.58
2022-07-29T21:27:18.369Z,17.45
2022-07-29T21:44:19.645Z,17.20
2022-07-29T21:52:43.488Z,17.15
2022-07-29T22:01:08.582Z,17.10
2022-07-29T22:09:33.493Z,17.09
2022-07-29T22:17:57.094Z,17.15
2022-07-29T22:26:22.611Z,17.19
2022-07-29T22:34:47.647Z,17.20
2022-07-29T22:43:10.791Z,17.19
2022-07-29T22:51:33.835Z,17.17
2022-07-29T22:59:56.994Z,17.12
2022-07-29T23:08:25.095Z,17.07
2022-07-29T23:16:48.189Z,17.04
2022-07-29T23:25:16.198Z,17.03
2022-07-29T23:33:43.421Z,16.99
2022-07-29T23:42:06.428Z,16.97
2022-07-29T23:50:29.495Z,17.01
2022-07-29T23:58:52.598Z,17.03
